createdAt,value
2023-01-13T00:00:47.217Z,0.90
2023-01-13T00:03:13.448Z,1.20
2023-01-13T00:05:39.728Z,2.20
2023-01-13T00:08:06.036Z,0.80
2023-01-13T00:10:32.660Z,1.17
2023-01-13T00:12:59.437Z,1.33
2023-01-13T00:15:25.653Z,0.70
2023-01-13T00:17:51.867Z,0.77
2023-01-13T00:20:18.236Z,0.50
2023-01-13T00:22:44.798Z,3.73
2023-01-13T00:25:10.960Z,0.63
2023-01-13T00:27:37.134Z,2.00
2023-01-13T00:30:05.279Z,0.70
2023-01-13T00:32:31.487Z,2.70
2023-01-13T00:34:58.370Z,0.57
2023-01-13T00:37:24.722Z,0.67
2023-01-13T00:39:50.961Z,0.83
2023-01-13T00:42:35.616Z,1.03
2023-01-13T00:45:01.907Z,0.70
2023-01-13T00:47:28.772Z,2.30
2023-01-13T00:49:54.897Z,3.90
2023-01-13T00:52:21.085Z,4.43
2023-01-13T00:54:47.287Z,2.43
2023-01-13T00:57:14.565Z,1.83
2023-01-13T00:59:40.995Z,1.57
2023-01-13T01:02:07.467Z,0.87
2023-01-13T01:04:34.506Z,2.43
2023-01-13T01:07:00.687Z,1.23
2023-01-13T01:09:31.777Z,3.60
2023-01-13T01:11:58.235Z,2.73
2023-01-13T01:14:24.536Z,3.90
2023-01-13T01:16:50.741Z,2.57
2023-01-13T01:19:18.161Z,1.33
2023-01-13T01:21:45.221Z,3.73
2023-01-13T01:24:11.391Z,2.93
2023-01-13T01:26:37.723Z,0.77
2023-01-13T01:29:03.963Z,5.17
2023-01-13T01:31:32.091Z,5.03
2023-01-13T01:33:58.904Z,1.17
2023-01-13T01:36:25.994Z,3.20
2023-01-13T01:38:52.835Z,5.90
2023-01-13T01:41:23.224Z,4.10
2023-01-13T01:44:02.115Z,2.97
2023-01-13T01:46:30.623Z,7.60
2023-01-13T01:49:01.543Z,2.03
2023-01-13T01:51:30.359Z,4.30
2023-01-13T01:53:58.002Z,3.37
2023-01-13T01:56:24.281Z,5.13
2023-01-13T01:58:51.652Z,5.53
2023-01-13T02:01:17.960Z,2.37
2023-01-13T02:03:54.051Z,2.57
2023-01-13T02:06:20.176Z,4.07
2023-01-13T02:08:46.881Z,3.67
2023-01-13T02:11:42.843Z,7.53
2023-01-13T02:14:08.982Z,5.93
2023-01-13T02:16:36.218Z,6.60
2023-01-13T02:19:09.947Z,5.00
2023-01-13T02:21:58.637Z,3.63
2023-01-13T02:24:54.242Z,3.47
2023-01-13T02:27:52.618Z,5.77
2023-01-13T02:30:47.845Z,2.50
2023-01-13T02:33:24.607Z,6.70
2023-01-13T02:35:54.208Z,4.33
2023-01-13T02:38:24.001Z,2.70
2023-01-13T02:40:56.055Z,6.60
2023-01-13T02:43:45.758Z,5.10
2023-01-13T02:46:16.012Z,3.33
2023-01-13T02:48:43.084Z,3.10
2023-01-13T02:51:11.651Z,2.23
2023-01-13T02:53:41.359Z,7.33
2023-01-13T02:56:08.557Z,7.87
2023-01-13T02:58:36.007Z,5.30
2023-01-13T03:01:02.352Z,6.67
2023-01-13T03:03:29.221Z,5.97
2023-01-13T03:06:05.050Z,7.30
2023-01-13T03:08:38.741Z,5.77
2023-01-13T03:11:07.452Z,9.67
2023-01-13T03:13:50.872Z,6.73
2023-01-13T03:16:22.843Z,6.33
2023-01-13T03:18:54.320Z,7.97
2023-01-13T03:21:25.405Z,3.33
2023-01-13T03:23:54.167Z,5.60
2023-01-13T03:26:24.728Z,4.47
2023-01-13T03:28:55.795Z,4.43
2023-01-13T03:31:26.805Z,3.73
2023-01-13T03:33:56.581Z,1.90
2023-01-13T03:36:25.701Z,8.53
2023-01-13T03:38:54.555Z,2.90
2023-01-13T03:41:24.356Z,6.40
2023-01-13T03:44:12.308Z,2.73
2023-01-13T03:46:41.560Z,6.47
2023-01-13T03:49:09.407Z,4.40
2023-01-13T03:51:38.849Z,4.80
2023-01-13T03:54:08.460Z,9.13
2023-01-13T03:56:38.771Z,3.67
2023-01-13T03:59:07.259Z,2.87
2023-01-13T04:01:38.367Z,3.77
2023-01-13T04:04:06.827Z,5.67
2023-01-13T04:06:37.985Z,4.80
2023-01-13T04:09:11.346Z,9.93
2023-01-13T04:11:39.891Z,6.67
2023-01-13T04:14:08.087Z,4.70
2023-01-13T04:16:36.285Z,5.53
2023-01-13T04:19:03.777Z,5.00
2023-01-13T04:21:30.475Z,7.90
2023-01-13T04:23:57.342Z,4.87
2023-01-13T04:26:23.629Z,8.43
2023-01-13T04:28:51.106Z,6.23
2023-01-13T04:31:17.377Z,5.27
2023-01-13T04:33:43.574Z,10.77
2023-01-13T04:36:09.812Z,10.83
2023-01-13T04:38:35.971Z,8.47
2023-01-13T04:41:02.801Z,7.80
2023-01-13T04:43:29.082Z,6.67
2023-01-13T04:45:55.343Z,6.43
2023-01-13T04:48:21.607Z,7.93
2023-01-13T04:50:47.975Z,8.60
2023-01-13T04:53:21.473Z,9.00
2023-01-13T04:55:48.964Z,9.77
2023-01-13T04:58:16.018Z,11.43
2023-01-13T05:00:42.333Z,10.40
2023-01-13T05:03:08.564Z,18.93
2023-01-13T05:05:34.775Z,12.70
2023-01-13T05:08:01.057Z,13.80
2023-01-13T05:10:27.483Z,10.03
2023-01-13T05:13:12.072Z,18.57
2023-01-13T05:15:58.334Z,8.17
2023-01-13T05:18:25.044Z,12.57
2023-01-13T05:20:51.277Z,14.73
2023-01-13T05:23:35.958Z,14.67
2023-01-13T05:26:02.344Z,15.03
2023-01-13T05:28:31.659Z,11.50
2023-01-13T05:31:01.736Z,12.33
2023-01-13T05:33:28.423Z,14.80
2023-01-13T05:35:54.898Z,23.67
2023-01-13T05:38:21.031Z,19.80
2023-01-13T05:41:05.723Z,13.70
2023-01-13T05:43:32.473Z,14.03
2023-01-13T05:46:00.575Z,19.57
2023-01-13T05:48:28.981Z,17.33
2023-01-13T05:50:55.342Z,14.00
2023-01-13T05:53:22.116Z,12.50
2023-01-13T05:55:48.663Z,13.77
2023-01-13T05:58:16.250Z,19.27
2023-01-13T06:00:42.563Z,15.77
2023-01-13T06:03:10.405Z,14.30
2023-01-13T06:05:36.917Z,16.97
2023-01-13T06:08:05.028Z,14.67
2023-01-13T06:10:31.398Z,14.73
2023-01-13T06:12:57.589Z,11.13
2023-01-13T06:15:24.507Z,17.43
2023-01-13T06:17:50.714Z,8.63
2023-01-13T06:20:18.156Z,20.73
2023-01-13T06:22:46.759Z,20.20
2023-01-13T06:25:19.223Z,13.87
2023-01-13T06:27:45.618Z,8.30
2023-01-13T06:30:12.252Z,11.80
2023-01-13T06:32:41.506Z,7.63
2023-01-13T06:35:10.762Z,9.37
2023-01-13T06:37:37.990Z,6.27
2023-01-13T06:40:12.652Z,10.80
2023-01-13T06:42:57.483Z,17.70
2023-01-13T06:45:27.025Z,9.83
2023-01-13T06:48:02.276Z,10.17
2023-01-13T06:50:29.527Z,5.87
2023-01-13T06:52:56.379Z,12.33
2023-01-13T06:55:22.567Z,11.20
2023-01-13T06:57:50.075Z,8.40
2023-01-13T07:00:16.663Z,12.73
2023-01-13T07:02:42.973Z,7.07
2023-01-13T07:05:09.288Z,7.03
2023-01-13T07:07:35.515Z,8.93
2023-01-13T07:10:03.112Z,7.93
2023-01-13T07:12:29.347Z,7.67
2023-01-13T07:15:14.000Z,9.20
2023-01-13T07:17:40.163Z,7.80
2023-01-13T07:20:07.752Z,11.30
2023-01-13T07:22:33.982Z,10.73
2023-01-13T07:25:00.189Z,7.90
2023-01-13T07:27:27.011Z,10.30
2023-01-13T07:29:53.211Z,9.70
2023-01-13T07:32:19.343Z,13.03
2023-01-13T07:34:45.647Z,11.30
2023-01-13T07:37:11.796Z,4.50
2023-01-13T07:39:37.996Z,12.13
2023-01-13T07:42:22.330Z,10.60
2023-01-13T07:44:49.257Z,9.03
2023-01-13T07:47:15.429Z,6.03
2023-01-13T07:49:41.529Z,10.97
2023-01-13T07:52:08.308Z,8.00
2023-01-13T07:54:40.713Z,10.37
2023-01-13T07:57:07.900Z,9.47
2023-01-13T07:59:34.080Z,6.73
2023-01-13T08:02:01.234Z,8.27
2023-01-13T08:04:27.685Z,5.60
2023-01-13T08:06:54.027Z,16.50
2023-01-13T08:12:29.396Z,5.90
2023-01-13T08:14:55.532Z,7.07
2023-01-13T08:17:22.434Z,8.93
2023-01-13T08:19:48.616Z,15.37
2023-01-13T08:22:14.812Z,10.23
2023-01-13T08:24:41.059Z,8.00
2023-01-13T08:27:07.317Z,10.63
2023-01-13T08:29:33.505Z,11.00
2023-01-13T08:31:59.653Z,9.87
2023-01-13T08:34:26.465Z,6.83
2023-01-13T08:36:52.747Z,12.40
2023-01-13T08:39:18.947Z,10.73
2023-01-13T08:41:57.740Z,9.07
2023-01-13T08:44:25.615Z,14.13
2023-01-13T08:46:51.790Z,22.03
2023-01-13T08:49:18.015Z,15.27
2023-01-13T08:51:45.199Z,10.80
2023-01-13T08:54:11.870Z,15.77
2023-01-13T08:56:38.559Z,11.67
2023-01-13T08:59:05.280Z,10.77
2023-01-13T09:01:32.104Z,13.87
2023-01-13T09:03:58.489Z,11.00
2023-01-13T09:06:24.740Z,10.33
2023-01-13T09:08:51.578Z,21.70
2023-01-13T09:11:36.571Z,16.93
2023-01-13T09:14:03.531Z,12.73
2023-01-13T09:16:29.871Z,11.90
2023-01-13T09:18:56.098Z,19.67
2023-01-13T09:21:22.283Z,17.77
2023-01-13T09:23:48.525Z,16.83
2023-01-13T09:26:16.456Z,15.30
2023-01-13T09:28:42.756Z,17.43
2023-01-13T09:31:08.935Z,18.00
2023-01-13T09:33:53.564Z,17.77
2023-01-13T09:36:19.921Z,13.57
2023-01-13T09:38:46.144Z,17.97
2023-01-13T09:41:33.529Z,17.73
2023-01-13T09:44:01.102Z,21.10
2023-01-13T09:46:44.053Z,18.30
2023-01-13T09:49:15.967Z,16.37
2023-01-13T09:51:45.260Z,11.70
2023-01-13T09:54:15.900Z,16.63
2023-01-13T09:56:42.760Z,13.50
2023-01-13T09:59:11.025Z,15.60
2023-01-13T10:01:42.396Z,15.53
2023-01-13T10:04:10.399Z,16.47
2023-01-13T10:06:37.994Z,28.27
2023-01-13T10:09:04.846Z,21.93
2023-01-13T10:11:51.537Z,15.97
2023-01-13T10:14:19.781Z,17.97
2023-01-13T10:16:50.735Z,20.90
2023-01-13T10:19:18.944Z,12.57
2023-01-13T10:22:09.326Z,14.70
2023-01-13T10:24:49.278Z,10.73
2023-01-13T10:27:19.396Z,22.00
2023-01-13T10:29:46.300Z,13.63
2023-01-13T10:32:12.455Z,12.07
2023-01-13T10:34:46.144Z,17.80
2023-01-13T10:37:19.999Z,18.50
2023-01-13T10:39:47.625Z,21.23
2023-01-13T10:42:15.244Z,19.70
2023-01-13T10:44:48.282Z,14.80
2023-01-13T10:47:24.072Z,15.33
2023-01-13T10:50:01.888Z,14.93
2023-01-13T10:52:30.478Z,21.37
2023-01-13T10:54:56.683Z,23.20
2023-01-13T10:57:24.443Z,22.30
2023-01-13T10:59:52.318Z,11.63
2023-01-13T11:02:26.528Z,13.70
2023-01-13T11:05:10.415Z,14.77
2023-01-13T11:07:39.167Z,16.93
2023-01-13T11:10:18.802Z,22.00
2023-01-13T11:12:53.657Z,19.27
2023-01-13T11:15:23.812Z,18.47
2023-01-13T11:17:59.646Z,20.70
2023-01-13T11:20:31.766Z,18.03
2023-01-13T11:23:01.299Z,15.20
2023-01-13T11:25:31.960Z,11.30
2023-01-13T11:28:01.322Z,12.20
2023-01-13T11:30:32.925Z,16.47
2023-01-13T11:33:31.180Z,17.47
2023-01-13T11:36:04.873Z,18.20
2023-01-13T11:38:35.042Z,18.37
2023-01-13T11:41:07.950Z,15.73
2023-01-13T11:43:39.472Z,16.40
2023-01-13T11:46:08.882Z,15.80
2023-01-13T11:48:37.839Z,21.83
2023-01-13T11:51:11.124Z,16.43
2023-01-13T11:53:52.304Z,24.63
2023-01-13T11:56:38.160Z,21.27
2023-01-13T11:59:41.375Z,11.87
2023-01-13T12:02:17.680Z,18.53
2023-01-13T12:04:51.714Z,16.67
2023-01-13T12:07:23.047Z,12.83
2023-01-13T12:10:03.534Z,16.60
2023-01-13T12:12:42.451Z,15.07
2023-01-13T12:15:41.419Z,16.80
2023-01-13T12:18:20.727Z,15.27
2023-01-13T12:20:55.025Z,15.00
2023-01-13T12:23:24.657Z,13.57
2023-01-13T12:25:53.897Z,17.23
2023-01-13T12:28:24.283Z,17.67
2023-01-13T12:30:53.246Z,15.47
2023-01-13T12:33:32.779Z,20.13
2023-01-13T12:36:01.851Z,10.93
2023-01-13T12:38:35.079Z,19.03
2023-01-13T12:41:10.031Z,11.70
2023-01-13T12:43:55.605Z,11.83
2023-01-13T12:46:43.683Z,13.80
2023-01-13T12:49:19.711Z,19.17
2023-01-13T12:52:13.933Z,17.73
2023-01-13T12:55:16.957Z,18.67
2023-01-13T12:58:14.773Z,14.33
2023-01-13T13:01:11.396Z,16.97
2023-01-13T13:03:37.784Z,15.17
2023-01-13T13:06:17.637Z,10.67
2023-01-13T13:08:50.654Z,7.83
2023-01-13T13:12:10.235Z,13.63
2023-01-13T13:15:02.244Z,6.47
2023-01-13T13:17:58.277Z,15.87
2023-01-13T13:20:56.916Z,13.60
2023-01-13T13:23:40.402Z,13.10
2023-01-13T13:26:16.396Z,13.53
2023-01-13T13:28:48.595Z,20.67
2023-01-13T13:31:35.100Z,14.33
2023-01-13T13:34:12.824Z,14.90
2023-01-13T13:37:07.109Z,12.53
2023-01-13T13:39:52.604Z,15.43
2023-01-13T13:42:38.983Z,14.50
2023-01-13T13:45:32.881Z,14.67
2023-01-13T13:48:00.330Z,13.63
2023-01-13T13:50:31.203Z,19.40
2023-01-13T13:53:00.922Z,19.10
2023-01-13T13:55:28.674Z,15.17
2023-01-13T13:57:56.902Z,10.97
2023-01-13T14:00:25.656Z,16.97
2023-01-13T14:02:53.766Z,16.07
2023-01-13T14:05:21.996Z,15.67
2023-01-13T14:07:49.831Z,19.40
2023-01-13T14:10:19.371Z,14.30
2023-01-13T14:12:46.352Z,13.73
2023-01-13T14:15:32.063Z,15.13
2023-01-13T14:17:59.772Z,6.93
2023-01-13T14:20:30.592Z,14.23
2023-01-13T14:23:00.731Z,18.37
2023-01-13T14:25:32.951Z,11.23
2023-01-13T14:28:05.069Z,14.03
2023-01-13T14:30:32.621Z,13.30
2023-01-13T14:32:59.158Z,12.50
2023-01-13T14:35:25.333Z,18.27
2023-01-13T14:38:01.270Z,16.63
2023-01-13T14:40:45.751Z,13.20
2023-01-13T14:43:15.473Z,14.13
2023-01-13T14:45:54.661Z,14.53
2023-01-13T14:48:21.718Z,21.93
2023-01-13T14:50:48.024Z,18.07
2023-01-13T14:53:29.340Z,21.47
2023-01-13T14:55:55.831Z,17.37
2023-01-13T14:58:27.928Z,15.67
2023-01-13T15:01:28.212Z,19.73
2023-01-13T15:03:54.491Z,13.20
2023-01-13T15:06:22.661Z,21.60
2023-01-13T15:08:49.699Z,15.10
2023-01-13T15:11:24.838Z,18.90
2023-01-13T15:13:57.104Z,19.23
2023-01-13T15:16:25.476Z,19.60
2023-01-13T15:18:52.030Z,16.57
2023-01-13T15:21:18.790Z,18.03
2023-01-13T15:23:46.391Z,13.57
2023-01-13T15:26:20.396Z,13.17
2023-01-13T15:28:47.376Z,15.73
2023-01-13T15:31:14.464Z,21.00
2023-01-13T15:33:41.016Z,14.43
2023-01-13T15:36:19.081Z,15.10
2023-01-13T15:38:45.243Z,18.37
2023-01-13T15:41:13.012Z,16.70
2023-01-13T15:43:58.257Z,17.20
2023-01-13T15:46:40.218Z,19.33
2023-01-13T15:49:12.005Z,14.60
2023-01-13T15:51:39.313Z,18.03
2023-01-13T15:54:05.847Z,15.73
2023-01-13T15:56:35.294Z,14.50
2023-01-13T15:59:01.513Z,15.80
2023-01-13T16:01:28.287Z,19.33
2023-01-13T16:03:56.387Z,18.63
2023-01-13T16:06:27.886Z,19.10
2023-01-13T16:08:54.053Z,13.40
2023-01-13T16:11:20.326Z,14.07
2023-01-13T16:13:46.565Z,18.57
2023-01-13T16:16:18.178Z,17.97
2023-01-13T16:18:45.158Z,13.47
2023-01-13T16:21:12.120Z,20.47
2023-01-13T16:23:38.362Z,16.63
2023-01-13T16:26:05.360Z,15.33
2023-01-13T16:28:34.522Z,23.27
2023-01-13T16:31:15.327Z,11.10
2023-01-13T16:33:41.501Z,14.80
2023-01-13T16:36:12.476Z,13.90
2023-01-13T16:38:38.896Z,10.27
2023-01-13T16:41:06.266Z,12.93
2023-01-13T16:43:32.458Z,14.17
2023-01-13T16:45:58.757Z,17.67
2023-01-13T16:48:24.967Z,13.77
2023-01-13T16:50:51.165Z,11.20
2023-01-13T16:53:18.090Z,17.10
2023-01-13T16:55:44.302Z,11.67
2023-01-13T16:58:16.377Z,13.53
2023-01-13T17:00:42.670Z,15.20
2023-01-13T17:03:08.844Z,17.47
2023-01-13T17:05:38.630Z,12.43
2023-01-13T17:08:05.230Z,11.13
2023-01-13T17:10:32.390Z,21.87
2023-01-13T17:13:04.560Z,12.23
2023-01-13T17:15:39.892Z,14.07
2023-01-13T17:18:06.384Z,13.60
2023-01-13T17:20:32.684Z,14.80
2023-01-13T17:22:58.950Z,20.00
2023-01-13T17:25:25.520Z,9.80
2023-01-13T17:27:52.441Z,13.57
2023-01-13T17:30:20.059Z,15.43
2023-01-13T17:32:46.434Z,13.70
2023-01-13T17:35:14.888Z,13.97
2023-01-13T17:37:50.260Z,15.87
2023-01-13T17:40:16.936Z,25.30
2023-01-13T17:42:45.194Z,22.73
2023-01-13T17:45:12.431Z,23.87
2023-01-13T17:47:38.605Z,20.90
2023-01-13T17:50:05.627Z,17.10
2023-01-13T17:52:34.892Z,23.07
2023-01-13T17:55:03.799Z,28.43
2023-01-13T17:57:30.198Z,13.70
2023-01-13T17:59:57.550Z,19.60
2023-01-13T18:02:31.100Z,22.13
2023-01-13T18:04:57.279Z,13.93
2023-01-13T18:07:23.508Z,23.50
2023-01-13T18:09:49.651Z,27.13
2023-01-13T18:12:15.901Z,14.43
2023-01-13T18:14:42.084Z,24.67
2023-01-13T18:17:10.563Z,16.77
2023-01-13T18:19:55.838Z,15.70
2023-01-13T18:22:40.178Z,17.17
2023-01-13T18:25:29.529Z,12.53
2023-01-13T18:27:56.000Z,23.87
2023-01-13T18:30:22.309Z,12.00
2023-01-13T18:32:54.456Z,15.77
2023-01-13T18:35:21.247Z,28.97
2023-01-13T18:37:47.449Z,10.27
2023-01-13T18:40:13.930Z,16.03
2023-01-13T18:43:01.126Z,15.60
2023-01-13T18:45:28.940Z,14.30
2023-01-13T18:47:59.132Z,20.63
2023-01-13T18:50:27.281Z,17.80
2023-01-13T18:52:53.814Z,14.47
2023-01-13T18:55:20.849Z,17.07
2023-01-13T18:57:47.216Z,11.97
2023-01-13T19:00:20.035Z,13.07
2023-01-13T19:02:46.685Z,15.77
2023-01-13T19:05:12.950Z,15.07
2023-01-13T19:07:39.845Z,11.07
2023-01-13T19:10:08.970Z,19.43
2023-01-13T19:12:35.202Z,15.33
2023-01-13T19:15:01.960Z,14.77
2023-01-13T19:17:31.481Z,16.93
2023-01-13T19:20:02.591Z,12.43
2023-01-13T19:22:30.130Z,12.67
2023-01-13T19:24:59.156Z,14.47
2023-01-13T19:27:28.916Z,12.23
2023-01-13T19:29:57.819Z,18.50
2023-01-13T19:32:24.489Z,13.50
2023-01-13T19:34:51.216Z,16.27
2023-01-13T19:37:18.050Z,10.63
2023-01-13T19:39:44.354Z,12.30
2023-01-13T19:42:30.154Z,22.93
2023-01-13T19:45:14.670Z,20.47
2023-01-13T19:47:46.972Z,20.47
2023-01-13T19:50:13.558Z,19.73
2023-01-13T19:52:40.213Z,19.10
2023-01-13T19:55:07.073Z,16.13
2023-01-13T19:57:33.924Z,21.30
2023-01-13T20:00:00.110Z,16.67
2023-01-13T20:02:30.891Z,21.77
2023-01-13T20:04:58.431Z,27.07
2023-01-13T20:07:25.739Z,17.17
2023-01-13T20:09:52.173Z,15.70
2023-01-13T20:12:20.254Z,31.03
2023-01-13T20:14:47.515Z,26.97
2023-01-13T20:17:14.648Z,26.60
2023-01-13T20:19:40.967Z,28.17
2023-01-13T20:22:07.478Z,18.40
2023-01-13T20:24:33.877Z,26.80
2023-01-13T20:27:00.720Z,20.10
2023-01-13T20:29:31.468Z,13.60
2023-01-13T20:31:58.270Z,22.20
2023-01-13T20:34:24.659Z,31.67
2023-01-13T20:39:44.149Z,24.77
2023-01-13T20:42:28.355Z,22.23
2023-01-13T20:47:46.096Z,22.57
2023-01-13T20:50:12.471Z,19.43
2023-01-13T20:52:38.618Z,21.17
2023-01-13T20:55:05.913Z,22.93
2023-01-13T20:57:32.280Z,18.83
2023-01-13T20:59:58.398Z,24.93
2023-01-13T21:02:24.845Z,20.87
2023-01-13T21:04:51.720Z,21.60
2023-01-13T21:07:17.897Z,27.60
2023-01-13T21:09:43.996Z,23.37
2023-01-13T21:12:31.388Z,31.07
2023-01-13T21:15:15.740Z,26.53
2023-01-13T21:18:00.729Z,26.77
2023-01-13T21:20:29.740Z,38.50
2023-01-13T21:22:56.315Z,23.20
2023-01-13T21:25:22.617Z,19.53
2023-01-13T21:27:48.808Z,22.13
2023-01-13T21:30:16.840Z,29.20
2023-01-13T21:32:44.109Z,23.70
2023-01-13T21:35:10.833Z,21.63
2023-01-13T21:37:38.185Z,27.97
2023-01-13T21:40:06.917Z,20.83
2023-01-13T21:46:00.920Z,28.33
2023-01-13T21:48:27.127Z,12.80
2023-01-13T21:50:53.236Z,26.53
2023-01-13T21:53:20.037Z,20.67
2023-01-13T21:55:49.914Z,22.10
2023-01-13T21:58:16.105Z,26.93
2023-01-13T22:00:43.569Z,24.93
2023-01-13T22:03:10.956Z,32.33
2023-01-13T22:05:37.621Z,29.20
2023-01-13T22:08:04.457Z,27.27
2023-01-13T22:10:31.548Z,40.57
2023-01-13T22:12:59.012Z,28.60
2023-01-13T22:15:27.462Z,20.73
2023-01-13T22:17:55.151Z,26.00
2023-01-13T22:20:21.924Z,27.00
2023-01-13T22:22:48.267Z,31.23
2023-01-13T22:25:15.856Z,29.90
2023-01-13T22:27:44.004Z,35.57
2023-01-13T22:30:12.909Z,27.70
2023-01-13T22:32:39.158Z,27.83
2023-01-13T22:35:07.049Z,24.73
2023-01-13T22:37:33.426Z,24.47
2023-01-13T22:39:59.547Z,23.70
2023-01-13T22:42:25.706Z,29.73
2023-01-13T22:44:52.456Z,26.37
2023-01-13T22:47:18.620Z,33.03
2023-01-13T22:49:46.914Z,39.57
2023-01-13T22:52:13.432Z,30.23
2023-01-13T22:54:39.628Z,26.00
2023-01-13T22:57:05.845Z,22.63
2023-01-13T22:59:31.985Z,28.13
2023-01-13T23:01:58.759Z,29.93
2023-01-13T23:04:26.027Z,31.33
2023-01-13T23:06:52.211Z,34.07
2023-01-13T23:09:18.393Z,25.70
2023-01-13T23:11:46.278Z,22.90
2023-01-13T23:14:13.869Z,26.53
2023-01-13T23:16:40.549Z,29.57
2023-01-13T23:19:07.686Z,23.73
2023-01-13T23:21:35.590Z,25.70
2023-01-13T23:24:02.218Z,20.10
2023-01-13T23:26:29.479Z,22.13
2023-01-13T23:28:59.822Z,32.17
2023-01-13T23:31:26.065Z,34.47
2023-01-13T23:33:52.222Z,34.73
2023-01-13T23:36:20.635Z,24.50
2023-01-13T23:38:47.142Z,33.27
2023-01-13T23:41:15.004Z,27.30
2023-01-13T23:43:41.188Z,29.63
2023-01-13T23:46:09.983Z,28.77
2023-01-13T23:48:36.573Z,34.80
2023-01-13T23:51:05.083Z,25.73
2023-01-13T23:53:34.339Z,24.47
2023-01-13T23:56:01.258Z,27.27
2023-01-13T23:58:28.198Z,27.73
